Air Navigation Services of Czech Republic
Airport: LKMT Updated:  20.05.2022 20:00:32  UTC
 METAR LKMT 20.05. 20:00 ...
METAR LKMT 202000Z 21007KT CAVOK 22/14 Q1015 NOSIG=
 TAF LKMT 20.05. 17:00 ...
TAF LKMT 201700Z 2018/2200 21008KT CAVOK      TEMPO 2018/2106 22012G24KT 5000 SHRA SCT050CB      PROB30 TEMPO 2018/2105 24020G38KT 2500 TSRA SCT040CB      BECMG 2106/2107 28012KT      TEMPO 2107/2120 29014G28KT      BECMG 2120/2122 33005KT=